createdAt,value
2019-02-23T00:00:45.204Z,100.00
2019-02-23T00:03:14.778Z,100.00
2019-02-23T00:05:44.337Z,100.00
2019-02-23T00:08:13.974Z,100.00
2019-02-23T00:10:44.352Z,100.00
2019-02-23T00:13:13.856Z,100.00
2019-02-23T00:15:43.510Z,100.00
2019-02-23T00:18:13.002Z,100.00
2019-02-23T00:20:42.499Z,100.00
2019-02-23T00:23:12.059Z,100.00
2019-02-23T00:25:41.613Z,100.00
2019-02-23T00:28:11.100Z,100.00
2019-02-23T00:30:40.588Z,100.00
2019-02-23T00:33:10.089Z,100.00
2019-02-23T00:35:39.653Z,100.00
2019-02-23T00:38:09.160Z,100.00
2019-02-23T00:40:38.644Z,100.00
2019-02-23T00:43:08.204Z,100.00
2019-02-23T00:45:37.725Z,100.00
2019-02-23T00:48:07.224Z,100.00
2019-02-23T00:50:36.723Z,100.00
2019-02-23T00:53:06.318Z,100.00
2019-02-23T00:55:35.805Z,100.00
2019-02-23T00:58:05.293Z,100.00
2019-02-23T01:00:34.843Z,100.00
2019-02-23T01:03:04.395Z,100.00
2019-02-23T01:05:33.974Z,100.00
2019-02-23T01:08:03.485Z,100.00
2019-02-23T01:10:32.986Z,100.00
2019-02-23T01:13:02.477Z,100.00
2019-02-23T01:15:32.041Z,100.00
2019-02-23T01:18:01.622Z,100.00
2019-02-23T01:20:31.103Z,100.00
2019-02-23T01:23:00.597Z,100.00
2019-02-23T01:25:30.296Z,100.00
2019-02-23T01:27:59.773Z,100.00
2019-02-23T01:30:29.348Z,100.00
2019-02-23T01:32:58.890Z,100.00
2019-02-23T01:35:28.469Z,100.00
2019-02-23T01:37:57.949Z,100.00
2019-02-23T01:40:27.704Z,100.00
2019-02-23T01:42:57.329Z,100.00
2019-02-23T01:45:26.913Z,100.00
2019-02-23T01:47:56.398Z,100.00
2019-02-23T01:50:25.947Z,100.00
2019-02-23T01:52:55.449Z,100.00
2019-02-23T01:55:24.936Z,100.00
2019-02-23T01:57:54.418Z,100.00
2019-02-23T02:00:24.150Z,100.00
2019-02-23T02:02:53.656Z,100.00
2019-02-23T02:05:23.156Z,100.00
2019-02-23T02:07:52.729Z,100.00
2019-02-23T02:10:22.296Z,100.00
2019-02-23T02:12:52.005Z,100.00
2019-02-23T02:15:21.498Z,100.00
2019-02-23T02:17:50.993Z,100.00
2019-02-23T02:20:20.474Z,100.00
2019-02-23T02:22:50.048Z,100.00
2019-02-23T02:25:19.520Z,100.00
2019-02-23T02:27:49.019Z,100.00
2019-02-23T02:30:18.491Z,100.00
2019-02-23T02:32:48.234Z,100.00
2019-02-23T02:35:17.728Z,100.00
2019-02-23T02:37:47.210Z,100.00
2019-02-23T02:40:16.721Z,100.00
2019-02-23T02:42:46.238Z,100.00
2019-02-23T02:45:15.739Z,100.00
2019-02-23T02:47:45.239Z,100.00
2019-02-23T02:50:23.856Z,100.00
2019-02-23T02:52:46.039Z,100.00
2019-02-23T02:55:15.540Z,100.00
2019-02-23T02:57:45.058Z,100.00
2019-02-23T03:00:14.645Z,100.00
2019-02-23T03:02:44.128Z,100.00
2019-02-23T03:05:13.758Z,100.00
2019-02-23T03:07:43.351Z,100.00
2019-02-23T03:10:12.852Z,100.00
2019-02-23T03:12:42.334Z,100.00
2019-02-23T03:15:11.963Z,100.00
2019-02-23T03:17:41.447Z,100.00
2019-02-23T03:20:11.217Z,100.00
2019-02-23T03:22:40.702Z,100.00
2019-02-23T03:25:10.281Z,100.00
2019-02-23T03:27:39.768Z,100.00
2019-02-23T03:30:11.844Z,100.00
2019-02-23T03:32:41.527Z,100.00
2019-02-23T03:35:11.103Z,100.00
2019-02-23T03:37:40.649Z,100.00
2019-02-23T03:40:10.637Z,100.00
2019-02-23T03:42:40.121Z,100.00
2019-02-23T03:45:10.169Z,100.00
2019-02-23T03:47:39.663Z,100.00
2019-02-23T03:50:09.503Z,100.00
2019-02-23T03:52:39.055Z,100.00
2019-02-23T03:55:08.758Z,100.00
2019-02-23T03:57:38.247Z,100.00
2019-02-23T04:00:11.605Z,100.00
2019-02-23T04:02:41.090Z,100.00
2019-02-23T04:05:10.762Z,100.00
2019-02-23T04:07:40.266Z,100.00
2019-02-23T04:10:10.187Z,100.00
2019-02-23T04:12:39.662Z,100.00
2019-02-23T04:15:09.317Z,100.00
2019-02-23T04:17:38.953Z,100.00
2019-02-23T04:20:09.074Z,100.00
2019-02-23T04:22:38.586Z,100.00
2019-02-23T04:25:09.613Z,100.00
2019-02-23T04:27:39.107Z,100.00
2019-02-23T04:30:09.938Z,100.00
2019-02-23T04:32:39.478Z,100.00
2019-02-23T04:35:09.139Z,100.00
2019-02-23T04:37:38.635Z,100.00
2019-02-23T04:40:08.698Z,100.00
2019-02-23T04:42:38.184Z,100.00
2019-02-23T04:45:09.038Z,100.00
2019-02-23T04:47:38.532Z,100.00
2019-02-23T04:50:12.416Z,100.00
2019-02-23T04:52:41.976Z,100.00
2019-02-23T04:55:12.031Z,100.00
2019-02-23T04:57:41.511Z,100.00
2019-02-23T05:00:16.205Z,100.00
2019-02-23T05:03:05.056Z,100.00
2019-02-23T05:05:34.609Z,100.00
2019-02-23T05:08:04.168Z,100.00
2019-02-23T05:10:33.734Z,100.00
2019-02-23T05:13:03.222Z,100.00
2019-02-23T05:15:32.705Z,100.00
2019-02-23T05:18:02.198Z,100.00
2019-02-23T05:20:31.681Z,100.00
2019-02-23T05:23:01.164Z,100.00
2019-02-23T05:25:30.647Z,100.00
2019-02-23T05:28:00.140Z,100.00
2019-02-23T05:30:29.622Z,100.00
2019-02-23T05:32:59.123Z,100.00
2019-02-23T05:35:28.620Z,100.00
2019-02-23T05:37:58.108Z,100.00
2019-02-23T05:40:27.601Z,100.00
2019-02-23T05:43:00.923Z,100.00
2019-02-23T05:45:28.449Z,100.00
2019-02-23T05:47:57.930Z,100.00
2019-02-23T05:50:27.462Z,100.00
2019-02-23T05:52:57.015Z,100.00
2019-02-23T05:55:26.487Z,100.00
2019-02-23T05:57:55.975Z,100.00
2019-02-23T06:00:25.471Z,100.00
2019-02-23T06:02:54.979Z,100.00
2019-02-23T06:05:24.459Z,100.00
2019-02-23T06:07:53.951Z,100.00
2019-02-23T06:10:23.506Z,100.00
2019-02-23T06:12:53.027Z,100.00
2019-02-23T06:15:22.496Z,100.00
2019-02-23T06:17:52.047Z,100.00
2019-02-23T06:20:21.563Z,100.00
2019-02-23T06:22:51.052Z,100.00
2019-02-23T06:25:20.596Z,100.00
2019-02-23T06:27:50.039Z,100.00
2019-02-23T06:30:19.531Z,100.00
2019-02-23T06:32:49.014Z,100.00
2019-02-23T06:35:18.499Z,100.00
2019-02-23T06:37:47.995Z,100.00
2019-02-23T06:40:17.493Z,100.00
2019-02-23T06:42:46.951Z,100.00
2019-02-23T06:45:16.474Z,100.00
2019-02-23T06:47:45.958Z,100.00
2019-02-23T06:50:15.535Z,100.00
2019-02-23T06:52:45.088Z,100.00
2019-02-23T06:55:14.575Z,100.00
2019-02-23T06:57:44.133Z,100.00
2019-02-23T07:00:17.258Z,100.00
2019-02-23T07:02:46.739Z,100.00
2019-02-23T07:05:16.221Z,100.00
2019-02-23T07:07:45.706Z,100.00
2019-02-23T07:10:15.688Z,100.00
2019-02-23T07:12:45.320Z,100.00
2019-02-23T07:15:15.322Z,100.00
2019-02-23T07:17:44.808Z,100.00
2019-02-23T07:20:14.364Z,100.00
2019-02-23T07:22:43.900Z,100.00
2019-02-23T07:25:13.444Z,100.00
2019-02-23T07:27:42.930Z,100.00
2019-02-23T07:30:14.546Z,100.00
2019-02-23T07:32:44.054Z,100.00
2019-02-23T07:35:13.684Z,100.00
2019-02-23T07:37:45.139Z,100.00
2019-02-23T07:40:16.722Z,100.00
2019-02-23T07:42:46.486Z,99.51
2019-02-23T07:45:16.211Z,99.79
2019-02-23T07:47:45.732Z,98.24
2019-02-23T07:50:17.124Z,97.75
2019-02-23T07:52:46.593Z,96.66
2019-02-23T07:55:16.084Z,96.62
2019-02-23T07:57:45.591Z,96.71
2019-02-23T08:00:15.704Z,95.61
2019-02-23T08:02:45.209Z,95.86
2019-02-23T08:05:14.810Z,95.59
2019-02-23T08:07:44.284Z,95.25
2019-02-23T08:10:14.328Z,94.46
2019-02-23T08:12:43.909Z,93.96
2019-02-23T08:15:13.650Z,93.68
2019-02-23T08:17:43.177Z,94.20
2019-02-23T08:20:14.174Z,94.07
2019-02-23T08:22:43.727Z,93.37
2019-02-23T08:25:15.214Z,93.41
2019-02-23T08:27:44.775Z,93.01
2019-02-23T08:30:16.664Z,93.33
2019-02-23T08:32:46.230Z,92.79
2019-02-23T08:35:15.708Z,92.37
2019-02-23T08:37:47.078Z,91.74
2019-02-23T08:40:18.195Z,91.36
2019-02-23T08:42:47.687Z,91.07
2019-02-23T08:45:17.172Z,90.81
2019-02-23T08:47:47.027Z,90.56
2019-02-23T08:50:16.968Z,89.25
2019-02-23T08:52:49.548Z,89.81
2019-02-23T08:55:17.677Z,88.62
2019-02-23T08:57:47.216Z,88.40
2019-02-23T09:00:20.798Z,86.74
2019-02-23T09:02:50.365Z,85.94
2019-02-23T09:05:19.862Z,85.63
2019-02-23T09:07:49.363Z,83.24
2019-02-23T09:10:18.902Z,83.52
2019-02-23T09:12:48.478Z,83.08
2019-02-23T09:15:18.052Z,82.60
2019-02-23T09:17:47.527Z,80.77
2019-02-23T09:20:28.283Z,79.87
2019-02-23T09:22:59.499Z,77.99
2019-02-23T09:25:19.560Z,75.53
2019-02-23T09:27:49.045Z,73.08
2019-02-23T09:30:18.611Z,71.95
2019-02-23T09:32:48.116Z,71.33
2019-02-23T09:35:17.697Z,69.92
2019-02-23T09:37:47.614Z,71.23
2019-02-23T09:40:21.359Z,66.69
2019-02-23T09:42:50.909Z,67.39
2019-02-23T09:45:20.454Z,68.15
2019-02-23T09:47:49.972Z,66.77
2019-02-23T09:50:19.526Z,65.66
2019-02-23T09:52:49.048Z,62.33
2019-02-23T09:55:18.532Z,61.72
2019-02-23T09:57:48.056Z,58.89
2019-02-23T10:00:17.552Z,60.06
2019-02-23T10:02:47.064Z,60.53
2019-02-23T10:05:16.546Z,60.85
2019-02-23T10:07:46.041Z,59.55
2019-02-23T10:10:15.694Z,60.35
2019-02-23T10:12:45.190Z,61.61
2019-02-23T10:15:14.841Z,61.92
2019-02-23T10:17:44.333Z,62.01
2019-02-23T10:20:16.960Z,59.72
2019-02-23T10:22:46.536Z,60.44
2019-02-23T10:25:16.014Z,59.73
2019-02-23T10:27:45.532Z,60.19
2019-02-23T10:30:17.029Z,58.00
2019-02-23T10:32:46.508Z,55.22
2019-02-23T10:35:16.083Z,56.22
2019-02-23T10:37:46.262Z,57.73
2019-02-23T10:40:15.743Z,57.05
2019-02-23T10:42:45.251Z,57.20
2019-02-23T10:45:15.350Z,56.54
2019-02-23T10:47:44.854Z,55.12
2019-02-23T10:50:15.964Z,56.09
2019-02-23T10:52:45.518Z,55.03
2019-02-23T10:55:16.252Z,57.87
2019-02-23T10:57:45.773Z,56.14
2019-02-23T11:00:19.946Z,54.58
2019-02-23T11:02:49.616Z,56.25
2019-02-23T11:05:19.909Z,58.88
2019-02-23T11:07:49.477Z,58.49
2019-02-23T11:10:19.131Z,58.85
2019-02-23T11:12:48.712Z,56.75
2019-02-23T11:15:19.916Z,56.77
2019-02-23T11:17:49.424Z,54.27
2019-02-23T11:20:19.536Z,54.94
2019-02-23T11:22:49.029Z,56.05
2019-02-23T11:25:18.580Z,55.97
2019-02-23T11:27:48.109Z,55.38
2019-02-23T11:30:18.043Z,55.05
2019-02-23T11:32:47.556Z,55.62
2019-02-23T11:35:17.944Z,55.55
2019-02-23T11:37:52.232Z,55.20
2019-02-23T11:40:23.538Z,56.72
2019-02-23T11:42:52.963Z,56.03
2019-02-23T11:45:22.459Z,56.63
2019-02-23T11:47:51.944Z,57.62
2019-02-23T11:50:21.619Z,54.61
2019-02-23T11:52:51.112Z,56.13
2019-02-23T11:55:20.690Z,56.20
2019-02-23T11:57:50.204Z,54.69
2019-02-23T12:00:19.781Z,52.50
2019-02-23T12:02:52.443Z,51.45
2019-02-23T12:05:20.584Z,52.32
2019-02-23T12:07:50.150Z,51.79
2019-02-23T12:10:19.728Z,50.86
2019-02-23T12:12:49.311Z,51.94
2019-02-23T12:15:18.848Z,50.12
2019-02-23T12:17:48.414Z,50.56
2019-02-23T12:20:17.951Z,50.99
2019-02-23T12:22:47.473Z,51.88
2019-02-23T12:25:16.988Z,48.89
2019-02-23T12:27:46.449Z,47.09
2019-02-23T12:30:16.011Z,48.76
2019-02-23T12:32:45.565Z,46.49
2019-02-23T12:35:15.145Z,44.94
2019-02-23T12:37:45.221Z,47.81
2019-02-23T12:40:14.861Z,45.30
2019-02-23T12:42:44.440Z,44.32
2019-02-23T12:45:14.772Z,46.01
2019-02-23T12:47:44.356Z,46.02
2019-02-23T12:50:14.583Z,45.08
2019-02-23T12:52:44.160Z,43.53
2019-02-23T12:55:13.808Z,42.08
2019-02-23T12:57:43.296Z,44.39
2019-02-23T13:00:17.881Z,44.74
2019-02-23T13:02:47.494Z,42.72
2019-02-23T13:05:17.089Z,44.50
2019-02-23T13:07:46.665Z,42.09
2019-02-23T13:10:16.146Z,41.75
2019-02-23T13:12:52.818Z,41.00
2019-02-23T13:15:42.115Z,40.52
2019-02-23T13:18:52.282Z,38.92
2019-02-23T13:21:35.310Z,39.08
2019-02-23T13:24:36.575Z,40.08
2019-02-23T13:27:13.412Z,39.11
2019-02-23T13:29:56.307Z,39.81
2019-02-23T13:32:48.559Z,38.28
2019-02-23T13:35:49.715Z,38.29
2019-02-23T13:38:44.975Z,37.59
2019-02-23T13:41:37.927Z,37.57
2019-02-23T13:44:50.656Z,37.68
2019-02-23T13:47:44.432Z,37.81
2019-02-23T13:50:38.324Z,39.66
2019-02-23T13:53:21.061Z,40.26
2019-02-23T13:56:07.052Z,39.75
2019-02-23T13:58:49.784Z,39.73
2019-02-23T14:01:32.595Z,39.47
2019-02-23T14:04:15.512Z,39.67
2019-02-23T14:07:16.639Z,40.47
2019-02-23T14:10:39.203Z,40.20
2019-02-23T14:13:19.435Z,40.17
2019-02-23T14:16:15.978Z,39.53
2019-02-23T14:18:52.845Z,39.37
2019-02-23T14:21:58.644Z,39.89
2019-02-23T14:24:53.414Z,41.25
2019-02-23T14:27:53.127Z,41.39
2019-02-23T14:30:56.940Z,41.41
2019-02-23T14:33:54.674Z,41.16
2019-02-23T14:36:49.101Z,42.65
2019-02-23T14:39:56.924Z,41.68
2019-02-23T14:42:39.393Z,42.84
2019-02-23T14:45:19.022Z,40.82
2019-02-23T14:48:05.302Z,42.25
2019-02-23T14:51:11.485Z,41.88
2019-02-23T14:53:57.846Z,41.60
2019-02-23T14:56:55.852Z,42.77
2019-02-23T14:59:44.729Z,42.37
2019-02-23T15:02:50.228Z,44.09
2019-02-23T15:05:39.017Z,44.03
2019-02-23T15:09:00.399Z,45.63
2019-02-23T15:11:54.846Z,44.19
2019-02-23T15:14:31.741Z,44.73
2019-02-23T15:17:29.960Z,45.30
2019-02-23T15:20:38.644Z,44.27
2019-02-23T15:23:35.616Z,45.71
2019-02-23T15:26:12.697Z,44.60
2019-02-23T15:29:02.025Z,44.62
2019-02-23T15:32:07.544Z,45.07
2019-02-23T15:34:56.364Z,45.01
2019-02-23T15:37:36.430Z,46.36
2019-02-23T15:40:28.463Z,45.18
2019-02-23T15:43:13.918Z,45.60
2019-02-23T15:46:02.380Z,44.98
2019-02-23T15:49:06.188Z,45.38
2019-02-23T15:51:35.833Z,45.35
2019-02-23T15:54:05.462Z,47.78
2019-02-23T15:56:35.055Z,45.35
2019-02-23T15:59:04.580Z,45.39
2019-02-23T16:01:34.073Z,45.76
2019-02-23T16:04:03.629Z,45.50
2019-02-23T16:06:33.127Z,47.34
2019-02-23T16:09:02.758Z,46.57
2019-02-23T16:11:32.257Z,46.91
2019-02-23T16:14:01.748Z,46.71
2019-02-23T16:16:31.301Z,46.92
2019-02-23T16:19:00.896Z,46.89
2019-02-23T16:21:30.464Z,47.27
2019-02-23T16:23:59.967Z,47.26
2019-02-23T16:26:29.606Z,47.81
2019-02-23T16:28:59.114Z,48.08
2019-02-23T16:31:28.605Z,48.23
2019-02-23T16:33:58.194Z,49.10
2019-02-23T16:36:27.700Z,48.54
2019-02-23T16:38:57.292Z,48.82
2019-02-23T16:41:26.776Z,48.73
2019-02-23T16:43:56.274Z,49.71
2019-02-23T16:46:25.818Z,48.40
2019-02-23T16:48:55.275Z,48.69
2019-02-23T16:51:24.829Z,48.78
2019-02-23T16:53:54.414Z,48.67
2019-02-23T16:56:23.953Z,48.71
2019-02-23T16:58:53.452Z,49.13
2019-02-23T17:01:22.948Z,48.80
2019-02-23T17:03:52.443Z,49.24
2019-02-23T17:06:21.923Z,50.11
2019-02-23T17:08:51.422Z,51.75
2019-02-23T17:11:20.924Z,50.44
2019-02-23T17:13:50.414Z,50.90
2019-02-23T17:16:19.995Z,50.68
2019-02-23T17:18:49.505Z,50.50
2019-02-23T17:21:18.990Z,50.25
2019-02-23T17:23:48.537Z,50.87
2019-02-23T17:26:18.355Z,50.90
2019-02-23T17:28:47.855Z,50.99
2019-02-23T17:31:18.885Z,50.59
2019-02-23T17:33:48.377Z,51.31
2019-02-23T17:36:17.965Z,51.25
2019-02-23T17:38:47.468Z,51.33
2019-02-23T17:41:17.123Z,51.49
2019-02-23T17:43:46.712Z,51.74
2019-02-23T17:46:16.416Z,51.36
2019-02-23T17:48:46.106Z,51.73
2019-02-23T17:51:15.724Z,52.09
2019-02-23T17:53:45.288Z,52.53
2019-02-23T17:56:14.773Z,53.04
2019-02-23T17:58:44.311Z,53.17
2019-02-23T18:01:13.986Z,53.47
2019-02-23T18:03:43.537Z,54.95
2019-02-23T18:06:13.108Z,55.15
2019-02-23T18:08:42.627Z,55.18
2019-02-23T18:11:12.097Z,54.86
2019-02-23T18:13:41.734Z,54.95
2019-02-23T18:16:11.277Z,55.32
2019-02-23T18:18:40.781Z,55.11
2019-02-23T18:21:10.330Z,55.76
2019-02-23T18:23:39.855Z,55.36
2019-02-23T18:26:09.336Z,55.20
2019-02-23T18:28:38.905Z,54.42
2019-02-23T18:31:08.412Z,54.87
2019-02-23T18:33:38.268Z,54.90
2019-02-23T18:36:07.949Z,54.60
2019-02-23T18:38:37.532Z,54.99
2019-02-23T18:41:06.996Z,54.77
2019-02-23T18:43:36.505Z,55.03
2019-02-23T18:46:06.007Z,55.00
2019-02-23T18:48:35.477Z,54.60
2019-02-23T18:51:05.042Z,54.85
2019-02-23T18:53:34.540Z,55.66
2019-02-23T18:56:05.248Z,55.16
2019-02-23T18:58:34.729Z,56.29
2019-02-23T19:01:04.350Z,57.56
2019-02-23T19:03:33.859Z,56.68
2019-02-23T19:06:03.337Z,56.64
2019-02-23T19:08:32.823Z,56.55
2019-02-23T19:11:02.301Z,57.07
2019-02-23T19:13:31.938Z,56.73
2019-02-23T19:16:01.505Z,57.12
2019-02-23T19:18:30.977Z,57.24
2019-02-23T19:21:00.552Z,57.88
2019-02-23T19:23:30.123Z,57.64
2019-02-23T19:25:59.684Z,57.67
2019-02-23T19:28:29.166Z,58.44
2019-02-23T19:30:58.650Z,58.98
2019-02-23T19:33:28.165Z,59.73
2019-02-23T19:35:57.639Z,60.61
2019-02-23T19:38:27.244Z,60.24
2019-02-23T19:40:56.744Z,60.00
2019-02-23T19:43:26.222Z,59.70
2019-02-23T19:45:55.715Z,59.72
2019-02-23T19:48:25.193Z,60.56
2019-02-23T19:50:59.745Z,59.88
2019-02-23T19:53:29.284Z,60.14
2019-02-23T19:55:58.848Z,59.22
2019-02-23T19:58:28.411Z,59.32
2019-02-23T20:00:57.999Z,59.86
2019-02-23T20:03:27.478Z,60.17
2019-02-23T20:05:56.992Z,60.57
2019-02-23T20:08:26.494Z,60.13
2019-02-23T20:10:56.046Z,59.86
2019-02-23T20:13:25.635Z,60.84
2019-02-23T20:15:55.123Z,60.92
2019-02-23T20:18:24.709Z,60.60
2019-02-23T20:20:54.270Z,60.61
2019-02-23T20:23:23.770Z,60.69
2019-02-23T20:25:53.350Z,60.25
2019-02-23T20:28:22.920Z,61.00
2019-02-23T20:30:52.482Z,61.91
2019-02-23T20:33:22.089Z,61.82
2019-02-23T20:35:51.557Z,61.18
2019-02-23T20:38:21.043Z,62.41
2019-02-23T20:40:50.523Z,62.77
2019-02-23T20:43:20.022Z,62.71
2019-02-23T20:45:49.486Z,63.12
2019-02-23T20:48:19.049Z,63.27
2019-02-23T20:50:48.518Z,63.44
2019-02-23T20:53:18.108Z,62.03
2019-02-23T20:55:47.620Z,62.19
2019-02-23T20:58:17.187Z,62.01
2019-02-23T21:00:46.872Z,61.94
2019-02-23T21:03:16.386Z,61.90
2019-02-23T21:05:46.002Z,62.35
2019-02-23T21:08:15.491Z,63.51
2019-02-23T21:10:44.973Z,61.93
2019-02-23T21:13:14.493Z,62.68
2019-02-23T21:15:44.088Z,63.08
2019-02-23T21:18:13.669Z,63.46
2019-02-23T21:20:43.275Z,63.66
2019-02-23T21:23:12.856Z,63.57
2019-02-23T21:25:42.609Z,64.08
2019-02-23T21:28:12.127Z,64.89
2019-02-23T21:30:41.751Z,64.52
2019-02-23T21:33:11.256Z,65.10
2019-02-23T21:35:40.770Z,63.45
2019-02-23T21:38:11.983Z,63.93
2019-02-23T21:40:41.493Z,64.10
2019-02-23T21:43:11.011Z,64.53
2019-02-23T21:45:40.481Z,64.66
2019-02-23T21:48:09.955Z,63.89
2019-02-23T21:50:39.501Z,63.31
2019-02-23T21:53:09.009Z,63.31
2019-02-23T21:55:38.582Z,63.28
2019-02-23T21:58:08.152Z,62.96
2019-02-23T22:00:37.688Z,63.09
2019-02-23T22:03:07.279Z,63.67
2019-02-23T22:05:37.017Z,62.67
2019-02-23T22:08:06.571Z,62.79
2019-02-23T22:10:36.135Z,63.64
2019-02-23T22:13:05.644Z,62.92
2019-02-23T22:15:35.251Z,63.50
2019-02-23T22:18:04.820Z,62.74
2019-02-23T22:20:34.453Z,61.67
2019-02-23T22:23:03.982Z,62.01
2019-02-23T22:25:33.541Z,61.76
2019-02-23T22:28:03.025Z,61.83
2019-02-23T22:30:32.594Z,62.13
2019-02-23T22:33:02.095Z,62.36
2019-02-23T22:35:31.632Z,62.36
2019-02-23T22:38:01.129Z,63.21
2019-02-23T22:40:30.610Z,62.30
2019-02-23T22:43:00.092Z,61.42
2019-02-23T22:45:29.561Z,62.47
2019-02-23T22:47:59.064Z,63.20
2019-02-23T22:50:28.645Z,61.70
2019-02-23T22:52:58.119Z,61.09
2019-02-23T22:55:27.612Z,60.60
2019-02-23T22:57:57.090Z,60.69
2019-02-23T23:00:28.224Z,60.46
2019-02-23T23:02:57.982Z,60.67
2019-02-23T23:05:27.554Z,60.71
2019-02-23T23:07:57.107Z,60.78
2019-02-23T23:10:26.605Z,61.29
2019-02-23T23:12:57.771Z,61.02
2019-02-23T23:15:27.579Z,61.24
2019-02-23T23:17:57.125Z,60.88
2019-02-23T23:20:26.570Z,61.04
2019-02-23T23:22:56.076Z,61.01
2019-02-23T23:25:25.564Z,61.20
2019-02-23T23:27:55.025Z,61.87
2019-02-23T23:30:24.532Z,61.06
2019-02-23T23:32:54.021Z,60.46
2019-02-23T23:35:23.513Z,60.63
2019-02-23T23:37:53.022Z,60.94
2019-02-23T23:40:22.585Z,60.52
2019-02-23T23:42:57.971Z,60.96
2019-02-23T23:45:23.605Z,59.93
2019-02-23T23:47:53.118Z,59.85
2019-02-23T23:50:22.620Z,59.37
2019-02-23T23:52:52.190Z,59.59
2019-02-23T23:55:21.667Z,58.96
2019-02-23T23:57:58.028Z,58.63
